createdAt,value
2023-02-15T00:02:08.054Z,17.20
2023-02-15T00:04:51.150Z,17.07
2023-02-15T00:07:21.425Z,17.90
2023-02-15T00:09:49.743Z,19.67
2023-02-15T00:12:18.683Z,17.73
2023-02-15T00:14:46.681Z,17.83
2023-02-15T00:17:14.704Z,19.57
2023-02-15T00:19:42.709Z,19.47
2023-02-15T00:22:11.219Z,19.07
2023-02-15T00:24:40.626Z,22.40
2023-02-15T00:27:10.042Z,18.23
2023-02-15T00:29:38.034Z,17.23
2023-02-15T00:32:07.042Z,17.87
2023-02-15T00:34:35.282Z,17.33
2023-02-15T00:37:03.424Z,18.03
2023-02-15T00:39:31.442Z,20.60
2023-02-15T00:42:01.977Z,21.70
2023-02-15T00:44:30.040Z,21.10
2023-02-15T00:46:58.169Z,20.50
2023-02-15T00:49:26.179Z,21.10
2023-02-15T00:51:55.624Z,22.70
2023-02-15T00:54:23.649Z,22.83
2023-02-15T00:56:51.936Z,22.43
2023-02-15T00:59:21.400Z,22.83
2023-02-15T01:01:52.291Z,23.30
2023-02-15T01:04:21.176Z,24.13
2023-02-15T01:06:49.252Z,23.17
2023-02-15T01:09:17.245Z,23.40
2023-02-15T01:11:45.246Z,23.80
2023-02-15T01:14:14.122Z,22.47
2023-02-15T01:16:44.615Z,23.13
2023-02-15T01:19:12.652Z,19.87
2023-02-15T01:21:41.620Z,23.07
2023-02-15T01:24:14.127Z,22.43
2023-02-15T01:26:42.139Z,23.37
2023-02-15T01:29:10.306Z,21.57
2023-02-15T01:31:40.008Z,20.90
2023-02-15T01:34:09.919Z,20.63
2023-02-15T01:36:40.313Z,20.03
2023-02-15T01:39:11.354Z,19.50
2023-02-15T01:41:39.402Z,19.53
2023-02-15T01:44:37.197Z,16.97
2023-02-15T01:47:05.544Z,17.03
2023-02-15T01:49:35.351Z,20.17
2023-02-15T01:52:03.868Z,20.00
2023-02-15T01:54:34.860Z,18.80
2023-02-15T01:57:06.112Z,17.60
2023-02-15T01:59:36.103Z,17.43
2023-02-15T02:02:06.779Z,17.63
2023-02-15T02:04:41.798Z,17.40
2023-02-15T02:07:11.459Z,16.27
2023-02-15T02:09:40.031Z,14.93
2023-02-15T02:12:09.243Z,16.73
2023-02-15T02:14:37.637Z,16.63
2023-02-15T02:17:13.301Z,17.27
2023-02-15T02:20:21.807Z,17.63
2023-02-15T02:23:28.899Z,18.30
2023-02-15T02:26:32.544Z,15.50
2023-02-15T02:29:39.631Z,18.80
2023-02-15T02:32:33.672Z,18.07
2023-02-15T02:35:10.978Z,17.63
2023-02-15T02:37:50.615Z,17.47
2023-02-15T02:40:24.890Z,15.83
2023-02-15T02:43:01.515Z,16.83
2023-02-15T02:45:34.719Z,16.83
2023-02-15T02:48:07.719Z,16.57
2023-02-15T02:50:37.066Z,16.13
2023-02-15T02:53:05.144Z,17.33
2023-02-15T02:55:37.552Z,16.43
2023-02-15T02:58:11.030Z,13.53
2023-02-15T03:00:42.267Z,16.33
2023-02-15T03:03:15.908Z,16.10
2023-02-15T03:05:49.148Z,15.73
2023-02-15T03:08:22.810Z,13.23
2023-02-15T03:10:53.621Z,16.17
2023-02-15T03:13:22.308Z,17.10
2023-02-15T03:16:09.607Z,15.97
2023-02-15T03:18:43.158Z,14.23
2023-02-15T03:21:23.028Z,17.60
2023-02-15T03:23:56.602Z,17.43
2023-02-15T03:26:26.682Z,16.00
2023-02-15T03:28:58.890Z,16.30
2023-02-15T03:31:32.849Z,15.73
2023-02-15T03:34:04.474Z,15.97
2023-02-15T03:36:43.904Z,16.03
2023-02-15T03:39:19.274Z,15.57
2023-02-15T03:41:54.177Z,16.17
2023-02-15T03:44:28.801Z,13.83
2023-02-15T03:47:04.260Z,14.43
2023-02-15T03:49:41.240Z,14.77
2023-02-15T03:52:13.193Z,13.57
2023-02-15T03:54:46.727Z,14.90
2023-02-15T03:57:36.182Z,15.27
2023-02-15T04:00:24.455Z,15.07
2023-02-15T04:03:11.742Z,12.17
2023-02-15T04:05:40.141Z,14.63
2023-02-15T04:08:10.276Z,17.50
2023-02-15T04:10:57.077Z,16.40
2023-02-15T04:13:32.214Z,15.30
2023-02-15T04:16:06.662Z,15.77
2023-02-15T04:18:56.047Z,16.60
2023-02-15T04:21:43.565Z,15.60
2023-02-15T04:24:31.026Z,13.03
2023-02-15T04:26:59.161Z,14.43
2023-02-15T04:29:28.492Z,14.20
2023-02-15T04:31:59.240Z,17.37
2023-02-15T04:34:27.796Z,17.47
2023-02-15T04:36:55.808Z,16.33
2023-02-15T04:39:25.136Z,16.33
2023-02-15T04:41:53.135Z,14.63
2023-02-15T04:44:21.119Z,15.37
2023-02-15T04:46:49.123Z,15.37
2023-02-15T04:49:17.139Z,14.70
2023-02-15T04:51:45.131Z,14.70
2023-02-15T04:54:13.128Z,14.87
2023-02-15T04:56:43.294Z,14.60
2023-02-15T04:59:12.369Z,12.47
2023-02-15T05:01:40.403Z,14.27
2023-02-15T05:04:08.438Z,14.43
2023-02-15T05:06:36.793Z,14.97
2023-02-15T05:09:04.928Z,13.67
2023-02-15T05:11:32.944Z,12.80
2023-02-15T05:14:02.315Z,13.30
2023-02-15T05:16:30.548Z,12.97
2023-02-15T05:18:58.755Z,13.47
2023-02-15T05:21:26.776Z,13.10
2023-02-15T05:23:54.785Z,12.97
2023-02-15T05:26:43.282Z,11.77
2023-02-15T05:29:13.282Z,15.57
2023-02-15T05:31:41.549Z,12.23
2023-02-15T05:34:09.729Z,13.53
2023-02-15T05:36:37.718Z,16.97
2023-02-15T05:39:06.874Z,16.10
2023-02-15T05:41:34.906Z,16.13
2023-02-15T05:44:02.951Z,14.77
2023-02-15T05:46:32.378Z,15.87
2023-02-15T05:49:00.416Z,16.73
2023-02-15T05:51:28.434Z,14.87
2023-02-15T05:53:56.464Z,12.87
2023-02-15T05:56:24.519Z,16.80
2023-02-15T05:58:55.807Z,14.23
2023-02-15T06:01:23.938Z,16.07
2023-02-15T06:03:53.920Z,18.20
2023-02-15T06:06:22.116Z,16.47
2023-02-15T06:08:50.150Z,15.00
2023-02-15T06:11:18.302Z,16.07
2023-02-15T06:13:46.338Z,13.10
2023-02-15T06:16:16.999Z,16.30
2023-02-15T06:18:45.301Z,15.07
2023-02-15T06:21:14.887Z,12.87
2023-02-15T06:23:42.918Z,16.83
2023-02-15T06:26:11.118Z,16.80
2023-02-15T06:28:39.327Z,15.43
2023-02-15T06:31:07.524Z,16.13
2023-02-15T06:33:35.742Z,14.67
2023-02-15T06:36:04.833Z,14.30
2023-02-15T06:38:34.459Z,14.57
2023-02-15T06:41:02.546Z,14.30
2023-02-15T06:43:30.610Z,14.03
2023-02-15T06:45:58.829Z,14.13
2023-02-15T06:48:26.951Z,14.27
2023-02-15T06:50:54.956Z,14.50
2023-02-15T06:53:22.980Z,13.33
2023-02-15T06:55:53.405Z,13.30
2023-02-15T06:58:22.533Z,13.50
2023-02-15T07:00:51.195Z,12.50
2023-02-15T07:03:19.475Z,12.87
2023-02-15T07:05:49.717Z,13.77
2023-02-15T07:08:17.712Z,14.03
2023-02-15T07:10:46.102Z,14.10
2023-02-15T07:13:14.469Z,12.40
2023-02-15T07:15:42.596Z,12.13
2023-02-15T07:18:11.595Z,13.03
2023-02-15T07:20:42.464Z,12.63
2023-02-15T07:23:10.543Z,12.83
2023-02-15T07:25:38.568Z,13.00
2023-02-15T07:28:07.022Z,13.07
2023-02-15T07:30:36.881Z,12.60
2023-02-15T07:33:22.689Z,13.33
2023-02-15T07:35:51.237Z,12.60
2023-02-15T07:38:20.208Z,12.77
2023-02-15T07:40:48.215Z,12.90
2023-02-15T07:43:16.300Z,13.27
2023-02-15T07:45:45.975Z,13.50
2023-02-15T07:48:13.947Z,13.33
2023-02-15T07:50:42.140Z,13.23
2023-02-15T07:53:10.164Z,12.20
2023-02-15T07:55:38.268Z,12.93
2023-02-15T07:58:06.243Z,13.37
2023-02-15T08:00:54.308Z,13.00
2023-02-15T08:03:27.594Z,14.33
2023-02-15T08:05:59.929Z,13.97
2023-02-15T08:08:34.471Z,13.43
2023-02-15T08:11:22.137Z,12.83
2023-02-15T08:14:00.319Z,14.33
2023-02-15T08:16:31.911Z,13.70
2023-02-15T08:19:03.365Z,14.83
2023-02-15T08:21:32.832Z,14.93
2023-02-15T08:24:01.755Z,15.17
2023-02-15T08:26:31.076Z,12.50
2023-02-15T08:28:59.599Z,14.37
2023-02-15T08:31:28.612Z,16.00
2023-02-15T08:33:58.209Z,14.97
2023-02-15T08:36:29.658Z,15.67
2023-02-15T08:39:00.392Z,16.63
2023-02-15T08:41:31.199Z,16.63
2023-02-15T08:44:01.259Z,16.90
2023-02-15T08:46:30.941Z,14.80
2023-02-15T08:48:59.541Z,15.73
2023-02-15T08:51:31.006Z,16.30
2023-02-15T08:54:01.356Z,17.00
2023-02-15T08:56:32.749Z,16.40
2023-02-15T08:59:01.219Z,20.03
2023-02-15T09:01:31.237Z,17.03
2023-02-15T09:04:00.781Z,19.30
2023-02-15T09:06:30.812Z,17.53
2023-02-15T09:08:59.087Z,19.43
2023-02-15T09:11:29.325Z,18.30
2023-02-15T09:13:58.761Z,18.10
2023-02-15T09:16:29.070Z,17.13
2023-02-15T09:18:58.443Z,17.27
2023-02-15T09:21:28.013Z,17.03
2023-02-15T09:24:00.681Z,16.47
2023-02-15T09:26:31.237Z,17.30
2023-02-15T09:29:01.882Z,18.40
2023-02-15T09:31:32.288Z,17.33
2023-02-15T09:34:02.678Z,18.20
2023-02-15T09:36:34.109Z,18.93
2023-02-15T09:39:09.294Z,18.67
2023-02-15T09:42:12.488Z,17.00
2023-02-15T09:45:18.915Z,19.23
2023-02-15T09:48:15.372Z,18.40
2023-02-15T09:50:57.370Z,20.17
2023-02-15T09:53:47.340Z,18.83
2023-02-15T09:56:30.777Z,20.00
2023-02-15T09:59:08.659Z,21.47
2023-02-15T10:01:46.628Z,21.97
2023-02-15T10:04:33.960Z,20.90
2023-02-15T10:07:15.219Z,21.20
2023-02-15T10:09:56.429Z,21.47
2023-02-15T10:12:53.942Z,21.00
2023-02-15T10:15:32.912Z,24.43
2023-02-15T10:18:18.274Z,24.43
2023-02-15T10:20:56.816Z,24.17
2023-02-15T10:23:38.810Z,23.00
2023-02-15T10:26:14.948Z,24.30
2023-02-15T10:28:50.103Z,24.73
2023-02-15T10:31:25.774Z,25.20
2023-02-15T10:34:11.659Z,23.83
2023-02-15T10:36:53.296Z,23.07
2023-02-15T10:39:27.797Z,25.63
2023-02-15T10:42:02.925Z,23.73
2023-02-15T10:44:47.147Z,26.10
2023-02-15T10:47:37.291Z,26.40
2023-02-15T10:50:36.300Z,26.13
2023-02-15T10:53:17.458Z,26.33
2023-02-15T10:55:56.106Z,27.37
2023-02-15T10:58:34.482Z,24.17
2023-02-15T11:01:13.692Z,26.53
2023-02-15T11:03:53.635Z,25.97
2023-02-15T11:06:23.292Z,27.17
2023-02-15T11:08:55.840Z,26.70
2023-02-15T11:11:29.615Z,25.00
2023-02-15T11:14:03.095Z,27.33
2023-02-15T11:16:36.040Z,29.47
2023-02-15T11:19:10.214Z,28.93
2023-02-15T11:21:42.591Z,29.30
2023-02-15T11:24:13.636Z,28.17
2023-02-15T11:26:44.618Z,28.33
2023-02-15T11:29:17.184Z,28.80
2023-02-15T11:31:50.018Z,28.23
2023-02-15T11:34:24.415Z,29.43
2023-02-15T11:36:54.263Z,28.67
2023-02-15T11:39:24.144Z,29.17
2023-02-15T11:41:57.180Z,30.13
2023-02-15T11:44:29.981Z,30.20
2023-02-15T11:46:59.432Z,30.33
2023-02-15T11:49:32.500Z,30.17
2023-02-15T11:52:04.955Z,31.87
2023-02-15T11:54:36.518Z,31.57
2023-02-15T11:57:13.896Z,31.83
2023-02-15T11:59:46.019Z,31.77
2023-02-15T12:02:19.488Z,30.87
2023-02-15T12:04:54.581Z,31.97
2023-02-15T12:07:26.692Z,32.53
2023-02-15T12:10:01.437Z,32.10
2023-02-15T12:12:31.349Z,32.53
2023-02-15T12:15:01.047Z,34.23
2023-02-15T12:17:33.403Z,34.93
2023-02-15T12:20:04.376Z,34.57
2023-02-15T12:22:35.089Z,35.27
2023-02-15T12:25:06.376Z,35.80
2023-02-15T12:27:37.898Z,35.37
2023-02-15T12:30:09.503Z,35.53
2023-02-15T12:32:50.901Z,33.33
2023-02-15T12:35:28.720Z,35.47
2023-02-15T12:37:58.764Z,35.90
2023-02-15T12:40:30.932Z,36.17
2023-02-15T12:42:59.726Z,34.13
2023-02-15T12:45:29.970Z,35.00
2023-02-15T12:48:17.810Z,34.63
2023-02-15T12:50:47.395Z,33.67
2023-02-15T12:53:20.042Z,30.27
2023-02-15T12:55:53.795Z,32.03
2023-02-15T12:58:26.068Z,32.40
2023-02-15T13:01:22.237Z,34.70
2023-02-15T13:04:00.004Z,34.30
2023-02-15T13:06:29.774Z,33.40
2023-02-15T13:09:00.713Z,33.53
2023-02-15T13:11:34.949Z,32.47
2023-02-15T13:14:05.998Z,33.00
2023-02-15T13:16:36.837Z,33.90
2023-02-15T13:19:12.956Z,33.07
2023-02-15T13:21:45.094Z,29.20
2023-02-15T13:24:20.733Z,33.57
2023-02-15T13:26:49.652Z,31.23
2023-02-15T13:29:23.407Z,32.57
2023-02-15T13:31:53.284Z,33.10
2023-02-15T13:34:27.843Z,31.80
2023-02-15T13:37:03.432Z,31.57
2023-02-15T13:39:41.628Z,30.70
2023-02-15T13:42:22.401Z,30.80
2023-02-15T13:45:11.249Z,30.83
2023-02-15T13:47:47.794Z,29.43
2023-02-15T13:50:38.497Z,31.17
2023-02-15T13:53:30.403Z,28.20
2023-02-15T13:56:05.805Z,30.57
2023-02-15T13:59:10.970Z,31.87
2023-02-15T14:01:47.293Z,31.03
2023-02-15T14:04:30.486Z,30.37
2023-02-15T14:07:12.069Z,31.43
2023-02-15T14:09:49.506Z,30.67
2023-02-15T14:12:33.481Z,31.33
2023-02-15T14:15:17.256Z,29.87
2023-02-15T14:17:55.647Z,31.27
2023-02-15T14:20:34.606Z,28.10
2023-02-15T14:23:13.620Z,30.33
2023-02-15T14:25:46.906Z,30.17
2023-02-15T14:28:19.052Z,29.90
2023-02-15T14:30:50.407Z,29.37
2023-02-15T14:33:36.015Z,31.07
2023-02-15T14:36:08.653Z,28.83
2023-02-15T14:38:50.860Z,31.07
2023-02-15T14:41:22.629Z,28.67
2023-02-15T14:43:58.683Z,31.23
2023-02-15T14:46:32.438Z,29.67
2023-02-15T14:49:08.671Z,29.60
2023-02-15T14:51:57.673Z,31.43
2023-02-15T14:55:01.742Z,30.57
2023-02-15T14:57:35.401Z,30.70
2023-02-15T15:00:35.545Z,29.40
2023-02-15T15:03:03.645Z,31.77
2023-02-15T15:05:36.069Z,30.80
2023-02-15T15:08:06.758Z,30.33
2023-02-15T15:10:40.188Z,31.17
2023-02-15T15:13:54.053Z,30.33
2023-02-15T15:16:48.444Z,28.33
2023-02-15T15:20:09.408Z,29.77
2023-02-15T15:22:38.602Z,27.47
2023-02-15T15:25:12.344Z,31.07
2023-02-15T15:27:56.635Z,29.83
2023-02-15T15:30:50.869Z,30.97
2023-02-15T15:34:02.033Z,30.00
2023-02-15T15:37:07.196Z,29.77
2023-02-15T15:40:22.491Z,29.73
2023-02-15T15:43:17.707Z,29.63
2023-02-15T15:45:58.622Z,30.03
2023-02-15T15:48:34.387Z,29.70
2023-02-15T15:51:06.336Z,30.63
2023-02-15T15:53:43.211Z,29.87
2023-02-15T15:56:16.271Z,30.13
2023-02-15T15:58:53.578Z,31.73
2023-02-15T16:01:28.563Z,31.80
2023-02-15T16:03:59.229Z,32.80
2023-02-15T16:06:36.343Z,32.67
2023-02-15T16:09:17.589Z,33.27
2023-02-15T16:11:47.388Z,34.00
2023-02-15T16:14:20.959Z,34.57
2023-02-15T16:16:52.663Z,32.13
2023-02-15T16:19:24.852Z,32.57
2023-02-15T16:21:53.157Z,33.60
2023-02-15T16:24:34.784Z,33.10
2023-02-15T16:27:37.523Z,32.90
2023-02-15T16:30:31.901Z,31.73
2023-02-15T16:33:07.779Z,31.33
2023-02-15T16:35:37.550Z,31.17
2023-02-15T16:38:06.220Z,30.77
2023-02-15T16:40:54.686Z,32.10
2023-02-15T16:43:26.787Z,30.33
2023-02-15T16:46:05.638Z,30.17
2023-02-15T16:48:35.964Z,30.47
2023-02-15T16:51:04.646Z,31.43
2023-02-15T16:53:32.822Z,30.93
2023-02-15T16:56:03.090Z,32.90
2023-02-15T16:58:38.379Z,30.43
2023-02-15T17:01:10.765Z,29.73
2023-02-15T17:03:39.067Z,33.00
2023-02-15T17:06:22.544Z,32.67
2023-02-15T17:08:50.795Z,48.33
2023-02-15T17:11:20.758Z,43.80
2023-02-15T17:14:16.107Z,48.63
2023-02-15T17:16:50.329Z,49.27
2023-02-15T17:19:22.837Z,49.53
2023-02-15T17:21:53.885Z,53.70
2023-02-15T17:24:30.325Z,48.47
2023-02-15T17:27:02.405Z,57.30
2023-02-15T17:29:38.084Z,58.97
2023-02-15T17:32:15.574Z,60.63
2023-02-15T17:34:47.500Z,58.27
2023-02-15T17:37:26.034Z,57.40
2023-02-15T17:39:54.399Z,57.40
2023-02-15T17:42:51.056Z,49.73
2023-02-15T17:45:19.407Z,46.20
2023-02-15T17:47:50.260Z,42.47
2023-02-15T17:50:22.524Z,37.80
2023-02-15T17:52:51.012Z,36.57
2023-02-15T17:55:38.894Z,35.10
2023-02-15T17:58:09.673Z,34.27
2023-02-15T18:00:58.795Z,35.60
2023-02-15T18:03:50.651Z,32.37
2023-02-15T18:06:36.142Z,34.40
2023-02-15T18:09:21.675Z,32.07
2023-02-15T18:11:50.686Z,33.23
2023-02-15T18:14:18.686Z,32.80
2023-02-15T18:16:46.919Z,32.57
2023-02-15T18:19:18.984Z,31.53
2023-02-15T18:21:47.451Z,31.93
2023-02-15T18:24:20.718Z,30.17
2023-02-15T18:26:49.559Z,29.90
2023-02-15T18:29:17.707Z,32.30
2023-02-15T18:31:49.028Z,30.37
2023-02-15T18:34:24.693Z,32.13
2023-02-15T18:36:53.335Z,31.60
2023-02-15T18:39:32.961Z,32.77
2023-02-15T18:42:01.310Z,32.77
2023-02-15T18:44:29.339Z,31.10
2023-02-15T18:46:57.393Z,33.30
2023-02-15T18:49:26.773Z,30.63
2023-02-15T18:51:54.816Z,30.27
2023-02-15T18:54:25.711Z,31.53
2023-02-15T18:56:56.426Z,27.93
2023-02-15T18:59:28.088Z,26.70
2023-02-15T19:01:56.452Z,28.93
2023-02-15T19:04:26.154Z,28.97
2023-02-15T19:06:55.133Z,27.27
2023-02-15T19:09:26.123Z,29.53
2023-02-15T19:11:56.524Z,29.40
2023-02-15T19:14:27.329Z,29.73
2023-02-15T19:16:56.401Z,29.50
2023-02-15T19:19:26.116Z,25.87
2023-02-15T19:21:54.313Z,28.93
2023-02-15T19:24:25.505Z,27.87
2023-02-15T19:26:53.752Z,28.40
2023-02-15T19:29:26.991Z,29.50
2023-02-15T19:31:55.291Z,25.93
2023-02-15T19:34:23.494Z,25.93
2023-02-15T19:36:56.512Z,29.27
2023-02-15T19:39:27.472Z,25.67
2023-02-15T19:41:55.515Z,25.53
2023-02-15T19:44:23.537Z,24.97
2023-02-15T19:46:51.588Z,26.47
2023-02-15T19:49:19.587Z,26.50
2023-02-15T19:51:48.011Z,27.17
2023-02-15T19:54:23.744Z,27.63
2023-02-15T19:56:51.888Z,27.97
2023-02-15T19:59:24.816Z,27.57
2023-02-15T20:01:53.260Z,27.20
2023-02-15T20:04:21.428Z,26.53
2023-02-15T20:06:50.732Z,28.23
2023-02-15T20:09:25.964Z,27.13
2023-02-15T20:11:54.572Z,28.00
2023-02-15T20:14:24.088Z,27.07
2023-02-15T20:16:52.545Z,27.20
2023-02-15T20:19:20.548Z,28.60
2023-02-15T20:21:54.337Z,28.07
2023-02-15T20:24:32.223Z,27.73
2023-02-15T20:27:00.968Z,27.30
2023-02-15T20:29:28.959Z,26.93
2023-02-15T20:32:00.948Z,26.10
2023-02-15T20:34:29.084Z,25.83
2023-02-15T20:36:57.116Z,26.50
2023-02-15T20:39:26.482Z,26.17
2023-02-15T20:41:54.510Z,26.23
2023-02-15T20:44:25.201Z,26.23
2023-02-15T20:46:55.756Z,24.47
2023-02-15T20:49:25.041Z,26.20
2023-02-15T20:51:54.009Z,24.00
2023-02-15T20:54:24.173Z,25.93
2023-02-15T20:56:54.174Z,25.77
2023-02-15T20:59:25.765Z,25.20
2023-02-15T21:01:58.953Z,24.50
2023-02-15T21:04:31.495Z,24.67
2023-02-15T21:06:59.708Z,25.93
2023-02-15T21:09:28.068Z,24.07
2023-02-15T21:11:59.584Z,24.17
2023-02-15T21:14:29.321Z,23.90
2023-02-15T21:16:57.385Z,26.20
2023-02-15T21:19:26.023Z,25.73
2023-02-15T21:21:54.715Z,23.03
2023-02-15T21:24:25.305Z,25.10
2023-02-15T21:26:54.071Z,24.13
2023-02-15T21:29:25.759Z,24.57
2023-02-15T21:31:54.140Z,25.10
2023-02-15T21:34:22.364Z,25.27
2023-02-15T21:36:51.398Z,25.43
2023-02-15T21:39:22.045Z,24.10
2023-02-15T21:42:09.068Z,25.13
2023-02-15T21:44:56.495Z,21.93
2023-02-15T21:47:43.279Z,25.60
2023-02-15T21:50:31.051Z,22.90
2023-02-15T21:52:59.755Z,26.57
2023-02-15T21:55:28.385Z,26.90
2023-02-15T21:57:56.416Z,26.73
2023-02-15T22:00:27.682Z,25.40
2023-02-15T22:02:58.227Z,26.13
2023-02-15T22:05:29.107Z,25.60
2023-02-15T22:07:57.815Z,26.50
2023-02-15T22:10:28.670Z,24.80
2023-02-15T22:12:57.059Z,24.43
2023-02-15T22:15:30.021Z,21.97
2023-02-15T22:17:58.024Z,25.30
2023-02-15T22:20:26.219Z,27.63
2023-02-15T22:22:54.586Z,27.43
2023-02-15T22:25:24.911Z,25.07
2023-02-15T22:27:55.104Z,25.90
2023-02-15T22:30:27.678Z,25.17
2023-02-15T22:32:57.251Z,27.23
2023-02-15T22:35:27.029Z,25.10
2023-02-15T22:37:55.041Z,25.80
2023-02-15T22:40:28.645Z,26.17
2023-02-15T22:42:57.835Z,25.33
2023-02-15T22:45:28.994Z,28.20
2023-02-15T22:47:59.489Z,27.77
2023-02-15T22:50:29.094Z,27.00
2023-02-15T22:52:57.632Z,27.60
2023-02-15T22:55:28.899Z,28.57
2023-02-15T22:57:58.453Z,27.17
2023-02-15T23:00:39.552Z,25.37
2023-02-15T23:03:16.708Z,29.07
2023-02-15T23:05:44.996Z,28.43
2023-02-15T23:08:13.171Z,26.30
2023-02-15T23:10:42.349Z,29.17
2023-02-15T23:13:25.888Z,30.13
2023-02-15T23:15:58.624Z,25.00
2023-02-15T23:18:29.273Z,29.63
2023-02-15T23:20:59.428Z,27.43
2023-02-15T23:23:31.704Z,29.50
2023-02-15T23:25:59.939Z,28.70
2023-02-15T23:28:30.502Z,28.00
2023-02-15T23:31:01.128Z,25.73
2023-02-15T23:33:32.671Z,27.93
2023-02-15T23:36:00.985Z,26.60
2023-02-15T23:38:30.717Z,28.13
2023-02-15T23:41:18.024Z,28.37
2023-02-15T23:43:48.330Z,28.90
2023-02-15T23:46:34.973Z,28.47
2023-02-15T23:49:14.616Z,27.57
2023-02-15T23:51:43.983Z,28.80
2023-02-15T23:54:12.141Z,28.50
2023-02-15T23:56:42.005Z,25.47
2023-02-15T23:59:16.314Z,27.90
